Time;durP1;ratioP1;P1;durP2;ratioP2;P2;SDS_P1;SDS_P2;PMS_P1;PMS_P2;Temp;Humidity;BMP_temperature;BMP_pressure;BME280_temperature;BME280_humidity;BME280_pressure;Samples;Min_cycle;Max_cycle;Signal;HPM_P1;HPM_P2
2021/08/26 00:00:27;;;;;;;15.60;11.40;;;;;;;16.90;100.00;92966.97;5010705;28;20062;-81
2021/08/26 00:05:47;;;;;;;16.90;13.27;;;;;;;16.82;100.00;92983.06;5010573;28;20095;-81
2021/08/26 00:08:17;;;;;;;23.80;15.17;;;;;;;16.79;100.00;92983.53;5010709;28;20475;-81
2021/08/26 00:10:44;;;;;;;25.27;15.60;;;;;;;16.79;100.00;92993.91;5015659;28;20053;-81
2021/08/26 00:13:11;;;;;;;21.75;14.98;;;;;;;16.60;100.00;92960.66;5030125;28;20049;-81
2021/08/26 00:15:41;;;;;;;20.80;13.63;;;;;;;16.79;100.00;92976.56;5030034;28;20052;-81
2021/08/26 00:18:09;;;;;;;14.65;11.32;;;;;;;16.93;100.00;92989.84;5030074;28;20053;-81
2021/08/26 00:20:35;;;;;;;16.00;12.65;;;;;;;16.98;100.00;92983.88;5030153;28;20056;-81
2021/08/26 00:23:02;;;;;;;18.60;12.65;;;;;;;17.00;100.00;92979.22;5030371;28;20049;-81
2021/08/26 00:25:31;;;;;;;19.23;13.57;;;;;;;16.74;100.00;92936.84;5030295;28;20064;-81
2021/08/26 00:27:58;;;;;;;18.83;13.82;;;;;;;16.90;100.00;92974.75;5030545;28;20053;-82
2021/08/26 00:30:25;;;;;;;17.23;13.25;;;;;;;16.95;100.00;92971.44;5030392;28;20065;-80
2021/08/26 00:32:52;;;;;;;18.95;13.63;;;;;;;16.90;100.00;92968.81;5030182;28;20556;-78
2021/08/26 00:35:19;;;;;;;19.60;13.13;;;;;;;16.83;100.00;92969.03;5030362;28;20103;-78
2021/08/26 00:37:46;;;;;;;19.90;13.70;;;;;;;16.72;100.00;92962.25;5029518;28;20059;-79
2021/08/26 00:40:13;;;;;;;16.33;12.90;;;;;;;16.66;100.00;92961.47;5029517;28;20049;-79
2021/08/26 00:42:42;;;;;;;16.45;12.57;;;;;;;16.53;100.00;92944.56;5029789;28;20115;-79
2021/08/26 00:45:10;;;;;;;16.58;12.90;;;;;;;16.72;100.00;92976.00;5029476;28;20049;-80
2021/08/26 00:47:38;;;;;;;17.73;13.02;;;;;;;16.71;100.00;92969.25;5029702;28;20494;-79
2021/08/26 00:50:05;;;;;;;15.30;12.10;;;;;;;16.71;100.00;92974.44;5029500;28;20054;-79
2021/08/26 00:52:33;;;;;;;19.67;13.07;;;;;;;16.74;100.00;92975.75;5029579;28;20045;-79
2021/08/26 00:55:00;;;;;;;20.33;14.63;;;;;;;16.48;100.00;92932.34;5029689;28;20053;-80
2021/08/26 00:57:26;;;;;;;16.05;12.98;;;;;;;16.69;100.00;92966.13;5029583;28;20049;-80
2021/08/26 00:59:56;;;;;;;19.80;13.27;;;;;;;16.61;100.00;92949.25;5029514;28;20111;-79
2021/08/26 01:02:32;;;;;;;16.95;13.00;;;;;;;16.73;100.00;92959.41;5029258;28;20046;-78
2021/08/26 01:05:09;;;;;;;17.02;11.38;;;;;;;16.67;100.00;92956.00;5029054;28;20056;-78
2021/08/26 01:07:40;;;;;;;20.70;13.13;;;;;;;16.63;100.00;92949.78;5029415;28;20046;-78
2021/08/26 01:10:10;;;;;;;18.50;13.18;;;;;;;16.75;100.00;92953.97;5028727;28;20064;-78
2021/08/26 01:12:39;;;;;;;18.02;12.35;;;;;;;16.73;100.00;92937.88;5029307;28;20115;-78
2021/08/26 01:15:09;;;;;;;21.83;12.77;;;;;;;16.65;100.00;92929.56;5027237;28;20045;-80
2021/08/26 01:17:36;;;;;;;16.88;12.13;;;;;;;16.66;100.00;92938.13;5009232;28;20049;-79
2021/08/26 01:20:06;;;;;;;18.92;13.07;;;;;;;16.63;100.00;92942.00;5008809;28;20060;-79
2021/08/26 01:22:34;;;;;;;17.05;13.13;;;;;;;16.64;100.00;92943.56;5009296;28;20502;-79
2021/08/26 01:25:04;;;;;;;19.02;11.90;;;;;;;16.63;100.00;92941.22;5008651;28;20050;-79
2021/08/26 01:27:35;;;;;;;15.18;11.82;;;;;;;16.59;100.00;92947.94;5009492;28;20486;-79
2021/08/26 01:30:04;;;;;;;17.60;12.27;;;;;;;16.41;100.00;92927.41;5009068;28;20050;-79
2021/08/26 01:32:31;;;;;;;16.00;11.73;;;;;;;16.58;100.00;92952.38;5009371;28;20120;-79
2021/08/26 01:34:58;;;;;;;16.52;11.95;;;;;;;16.62;100.00;92956.00;5009449;28;20046;-79
2021/08/26 01:37:25;;;;;;;15.57;11.68;;;;;;;16.55;100.00;92952.84;5009484;28;20104;-81
2021/08/26 01:39:54;;;;;;;17.30;11.65;;;;;;;16.73;100.00;92969.00;5009475;28;20050;-81
2021/08/26 01:42:22;;;;;;;14.68;11.00;;;;;;;16.75;100.00;92956.56;5009021;28;20499;-81
2021/08/26 01:44:50;;;;;;;16.90;11.35;;;;;;;16.67;100.00;92943.03;5009292;28;20054;-81
2021/08/26 01:47:19;;;;;;;13.45;10.02;;;;;;;16.83;100.00;92954.28;5009384;28;20056;-80
2021/08/26 01:49:48;;;;;;;17.63;10.57;;;;;;;16.85;100.00;92959.19;5009622;28;20058;-79
2021/08/26 01:52:16;;;;;;;15.23;10.13;;;;;;;16.87;100.00;92957.13;5009442;28;20049;-80
2021/08/26 01:54:45;;;;;;;14.90;10.20;;;;;;;16.75;100.00;92944.38;5009109;28;20467;-81
2021/08/26 01:57:11;;;;;;;14.65;10.20;;;;;;;16.88;100.00;92963.88;5008959;28;20061;-80
2021/08/26 01:59:38;;;;;;;12.65;9.60;;;;;;;16.81;100.00;92948.53;5009195;28;20054;-80
2021/08/26 02:02:06;;;;;;;15.30;10.38;;;;;;;16.75;100.00;92941.78;5008803;28;20050;-79
2021/08/26 02:04:33;;;;;;;14.48;10.85;;;;;;;16.81;100.00;92956.31;5009125;28;20054;-82
2021/08/26 02:07:00;;;;;;;13.30;9.63;;;;;;;16.68;100.00;92925.69;5009150;28;20079;-82
2021/08/26 02:09:27;;;;;;;16.33;11.35;;;;;;;16.67;100.00;92929.31;5008886;28;20053;-82
2021/08/26 02:11:54;;;;;;;13.50;9.57;;;;;;;16.89;100.00;92949.88;5009065;28;20046;-83
2021/08/26 02:14:21;;;;;;;13.90;9.50;;;;;;;16.77;100.00;92920.78;5008456;28;20610;-83
2021/08/26 02:16:48;;;;;;;13.55;9.40;;;;;;;16.94;100.00;92939.50;5009000;28;20049;-83
2021/08/26 02:19:17;;;;;;;13.57;10.60;;;;;;;16.95;100.00;92937.69;5009022;28;20054;-80
2021/08/26 02:21:44;;;;;;;14.50;9.43;;;;;;;16.96;100.00;92931.47;5011130;28;20057;-80
2021/08/26 02:24:11;;;;;;;11.70;9.52;;;;;;;16.98;100.00;92931.22;5012460;28;20050;-80
2021/08/26 02:26:38;;;;;;;13.90;9.65;;;;;;;16.97;100.00;92927.84;5012509;28;20054;-79
2021/08/26 02:29:05;;;;;;;12.82;9.88;;;;;;;17.01;100.00;92931.47;5012059;28;20130;-81
2021/08/26 02:31:32;;;;;;;13.60;9.27;;;;;;;17.01;100.00;92933.28;5012501;28;20563;-80
2021/08/26 02:33:59;;;;;;;12.60;11.05;;;;;;;17.01;100.00;92931.47;5012612;28;20057;-80
2021/08/26 02:36:27;;;;;;;18.33;11.05;;;;;;;17.01;100.00;92928.09;5012867;28;20096;-79
2021/08/26 02:38:54;;;;;;;11.45;9.18;;;;;;;16.78;100.00;92904.97;5012393;28;20145;-79
2021/08/26 02:41:21;;;;;;;12.48;9.25;;;;;;;16.97;100.00;92930.44;5012156;28;20063;-79
2021/08/26 02:43:48;;;;;;;13.05;10.25;;;;;;;16.75;100.00;92897.69;5012141;28;20115;-79
2021/08/26 02:46:15;;;;;;;13.35;10.00;;;;;;;17.01;100.00;92935.88;5012254;28;20049;-78
2021/08/26 02:48:42;;;;;;;14.13;9.75;;;;;;;16.98;100.00;92939.75;5012039;28;20049;-80
2021/08/26 02:51:09;;;;;;;13.18;9.25;;;;;;;16.92;100.00;92928.59;5012068;28;20042;-82
2021/08/26 02:53:37;;;;;;;12.25;9.85;;;;;;;16.91;100.00;92936.63;5011704;28;20517;-81
2021/08/26 02:56:04;;;;;;;11.57;9.10;;;;;;;16.92;100.00;92933.81;5011801;28;20048;-82
2021/08/26 02:58:31;;;;;;;12.30;8.80;;;;;;;16.83;100.00;92922.34;5012060;28;20060;-80
2021/08/26 03:00:58;;;;;;;11.40;9.50;;;;;;;16.78;100.00;92919.75;5011722;28;20046;-82
2021/08/26 03:03:24;;;;;;;12.88;9.10;;;;;;;16.78;100.00;92930.91;5011591;28;20053;-81
2021/08/26 03:05:51;;;;;;;13.32;9.70;;;;;;;16.72;100.00;92920.75;5011699;28;20108;-80
2021/08/26 03:08:18;;;;;;;11.95;9.40;;;;;;;16.79;100.00;92936.84;5011783;28;20054;-80
2021/08/26 03:10:46;;;;;;;12.55;9.35;;;;;;;16.76;100.00;92929.59;5011783;28;20065;-80
2021/08/26 03:13:13;;;;;;;13.00;9.45;;;;;;;16.61;100.00;92910.34;5011331;28;20050;-80
2021/08/26 03:15:40;;;;;;;14.52;9.77;;;;;;;16.43;100.00;92877.88;5011490;28;20849;-81
2021/08/26 03:18:07;;;;;;;13.48;9.95;;;;;;;16.76;100.00;92916.63;5011245;28;20046;-80
2021/08/26 03:20:34;;;;;;;13.07;9.57;;;;;;;16.75;100.00;92920.25;5011550;28;20050;-81
2021/08/26 03:23:01;;;;;;;14.15;10.68;;;;;;;16.68;100.00;92918.66;5011247;28;20049;-81
2021/08/26 03:25:27;;;;;;;19.80;10.05;;;;;;;16.71;100.00;92922.56;5011338;28;20053;-81
2021/08/26 03:27:56;;;;;;;14.50;9.50;;;;;;;16.62;100.00;92906.72;5011068;28;20057;-82
2021/08/26 03:30:23;;;;;;;15.05;9.55;;;;;;;16.70;100.00;92916.63;5012079;28;20107;-82
2021/08/26 03:32:50;;;;;;;12.55;9.82;;;;;;;16.41;100.00;92875.56;5029255;28;20391;-81
2021/08/26 03:35:16;;;;;;;13.65;9.65;;;;;;;16.63;100.00;92903.13;5030527;28;20483;-81
2021/08/26 03:37:43;;;;;;;15.90;10.48;;;;;;;16.79;100.00;92926.47;5030697;28;20057;-81
2021/08/26 03:40:11;;;;;;;17.15;10.65;;;;;;;16.65;100.00;92898.44;5030428;28;20057;-81
2021/08/26 03:42:38;;;;;;;16.58;10.27;;;;;;;16.82;100.00;92924.16;5030458;28;20551;-81
2021/08/26 03:45:08;;;;;;;21.83;10.23;;;;;;;16.72;100.00;92900.00;5030470;28;20484;-81
2021/08/26 03:47:35;;;;;;;14.05;10.48;;;;;;;16.76;100.00;92906.25;5030705;28;20041;-81
2021/08/26 03:50:02;;;;;;;13.55;10.18;;;;;;;16.88;100.00;92926.75;5030375;28;20076;-81
2021/08/26 03:52:29;;;;;;;14.48;9.82;;;;;;;16.76;100.00;92901.84;5030323;28;20049;-81
2021/08/26 03:54:56;;;;;;;16.05;11.00;;;;;;;16.90;100.00;92915.09;5030751;28;20049;-81
2021/08/26 03:57:23;;;;;;;13.68;9.88;;;;;;;16.76;100.00;92894.06;5030552;28;20057;-81
2021/08/26 03:59:49;;;;;;;14.15;11.10;;;;;;;16.82;100.00;92906.00;5030332;28;20111;-81
2021/08/26 04:02:18;;;;;;;17.20;10.73;;;;;;;16.82;100.00;92902.63;5029877;28;20103;-81
2021/08/26 04:04:44;;;;;;;19.17;11.18;;;;;;;16.65;100.00;92875.09;5030374;28;20229;-81
2021/08/26 04:07:12;;;;;;;21.40;12.15;;;;;;;16.95;100.00;92920.31;5030218;28;20049;-81
2021/08/26 04:09:39;;;;;;;17.58;12.57;;;;;;;16.83;100.00;92896.41;5030030;28;20049;-81
2021/08/26 04:12:06;;;;;;;17.48;11.30;;;;;;;17.02;100.00;92914.88;5030153;28;20058;-81
2021/08/26 04:14:33;;;;;;;19.60;12.20;;;;;;;16.96;100.00;92905.53;5029890;28;20049;-81
2021/08/26 04:17:00;;;;;;;19.83;12.30;;;;;;;17.04;100.00;92918.00;5030139;28;20505;-81
2021/08/26 04:19:28;;;;;;;18.55;12.90;;;;;;;17.05;100.00;92927.38;5029991;28;20045;-81
2021/08/26 04:21:54;;;;;;;20.52;12.82;;;;;;;17.07;100.00;92925.28;5030208;28;20053;-81
2021/08/26 04:24:21;;;;;;;24.40;13.80;;;;;;;17.04;100.00;92928.38;5030058;28;20062;-81
2021/08/26 04:26:48;;;;;;;27.52;13.88;;;;;;;17.13;100.00;92933.09;5030229;28;20050;-80
2021/08/26 04:29:15;;;;;;;18.75;12.10;;;;;;;17.16;100.00;92930.75;5030472;28;20418;-81
2021/08/26 04:31:42;;;;;;;19.90;10.73;;;;;;;17.06;100.00;92917.75;5029946;28;20050;-80
2021/08/26 04:34:09;;;;;;;17.88;11.98;;;;;;;17.15;100.00;92925.81;5030294;28;20049;-80
2021/08/26 04:36:37;;;;;;;15.85;11.38;;;;;;;17.16;100.00;92917.00;5029544;28;20395;-80
2021/08/26 04:39:04;;;;;;;19.48;11.93;;;;;;;17.19;100.00;92917.28;5029263;28;20049;-81
2021/08/26 04:41:30;;;;;;;18.45;11.10;;;;;;;17.27;100.00;92912.59;5029692;28;20410;-81
2021/08/26 04:43:57;;;;;;;20.42;12.77;;;;;;;17.18;100.00;92883.78;5028514;28;20049;-81
2021/08/26 04:46:24;;;;;;;16.30;12.30;;;;;;;17.16;100.00;92875.47;5030033;28;20046;-81
2021/08/26 04:48:51;;;;;;;22.30;13.60;;;;;;;17.49;100.00;92917.53;5030208;28;20061;-81
2021/08/26 04:51:17;;;;;;;25.60;14.38;;;;;;;17.38;100.00;92888.22;5030206;28;20053;-81
2021/08/26 04:53:46;;;;;;;19.85;13.35;;;;;;;17.60;100.00;92908.69;5029967;28;20057;-80
2021/08/26 04:56:12;;;;;;;19.65;13.32;;;;;;;17.67;100.00;92905.09;5030157;28;20049;-80
2021/08/26 04:58:40;;;;;;;21.80;14.23;;;;;;;17.69;100.00;92897.81;5029761;28;20049;-80
2021/08/26 05:01:07;;;;;;;22.85;15.65;;;;;;;17.57;100.00;92866.91;5030056;28;20080;-81
2021/08/26 05:03:33;;;;;;;28.95;16.13;;;;;;;17.79;100.00;92897.00;5029979;28;20053;-81
2021/08/26 05:06:03;;;;;;;27.85;16.00;;;;;;;17.73;100.00;92886.63;5029912;28;20049;-81
2021/08/26 05:08:30;;;;;;;26.17;15.82;;;;;;;17.83;100.00;92904.00;5029647;28;20049;-81
2021/08/26 05:10:58;;;;;;;25.85;16.13;;;;;;;17.82;100.00;92901.69;5029634;28;20053;-81
2021/08/26 05:13:26;;;;;;;23.08;16.27;;;;;;;17.80;100.00;92920.13;5029797;28;20061;-81
2021/08/26 05:15:53;;;;;;;25.02;15.68;;;;;;;17.76;100.00;92927.66;5024104;28;20060;-81
2021/08/26 05:18:20;;;;;;;26.85;15.88;;;;;;;17.69;100.00;92940.13;5027928;28;20443;-79
2021/08/26 05:20:46;;;;;;;27.70;16.45;;;;;;;17.48;100.00;92921.19;5028898;28;20050;-78
2021/08/26 05:23:13;;;;;;;18.70;13.43;;;;;;;17.39;100.00;92902.75;5028999;28;20107;-77
2021/08/26 05:25:40;;;;;;;25.02;14.02;;;;;;;17.37;100.00;92904.81;5028863;28;20064;-77
2021/08/26 05:28:08;;;;;;;25.40;14.43;;;;;;;17.31;100.00;92893.66;5028846;28;20056;-76
2021/08/26 05:30:38;;;;;;;23.05;14.60;;;;;;;17.40;100.00;92899.09;5028972;28;20060;-76
2021/08/26 05:33:05;;;;;;;22.75;15.27;;;;;;;17.44;100.00;92892.34;5029263;28;20303;-76
2021/08/26 05:35:32;;;;;;;22.23;16.20;;;;;;;17.45;100.00;92887.94;5029170;28;20050;-76
2021/08/26 05:37:59;;;;;;;22.67;15.02;;;;;;;17.45;100.00;92867.94;5028643;28;20046;-76
2021/08/26 05:40:26;;;;;;;23.13;14.27;;;;;;;17.49;100.00;92873.38;5029039;28;20060;-77
2021/08/26 05:42:52;;;;;;;21.73;14.73;;;;;;;17.45;100.00;92860.16;5029002;28;20472;-76
2021/08/26 05:45:21;;;;;;;23.02;13.63;;;;;;;17.46;100.00;92853.16;5028598;28;20536;-76
2021/08/26 05:47:54;;;;;;;22.20;14.43;;;;;;;17.50;100.00;92862.75;5029031;28;20041;-76
2021/08/26 05:50:21;;;;;;;26.73;15.88;;;;;;;17.58;100.00;92868.44;5028651;28;20113;-76
2021/08/26 05:52:48;;;;;;;25.73;17.38;;;;;;;17.68;100.00;92875.47;5028742;28;20128;-77
2021/08/26 05:55:16;;;;;;;31.50;17.63;;;;;;;17.76;100.00;92859.34;5030932;28;20049;-76
2021/08/26 05:57:43;;;;;;;25.40;16.83;;;;;;;17.93;100.00;92868.66;5032443;28;20344;-77
2021/08/26 06:00:10;;;;;;;23.58;15.52;;;;;;;18.01;100.00;92879.28;5032780;28;20045;-77
2021/08/26 06:02:39;;;;;;;23.65;16.60;;;;;;;18.08;100.00;92873.06;5032633;28;20111;-77
2021/08/26 06:05:07;;;;;;;22.52;14.57;;;;;;;18.11;100.00;92878.53;5032370;28;20045;-77
2021/08/26 06:07:33;;;;;;;23.17;15.60;;;;;;;18.15;100.00;92894.38;5027796;28;20046;-78
2021/08/26 06:10:00;;;;;;;23.30;14.63;;;;;;;18.18;100.00;92893.84;5030617;28;20414;-78
2021/08/26 06:12:27;;;;;;;22.30;15.35;;;;;;;18.25;100.00;92896.94;5031862;28;20544;-78
2021/08/26 06:14:54;;;;;;;22.52;15.93;;;;;;;18.33;100.00;92902.63;5032271;28;20515;-78
2021/08/26 06:17:21;;;;;;;22.17;14.82;;;;;;;18.36;100.00;92908.09;5031946;28;20559;-78
2021/08/26 06:19:50;;;;;;;25.63;16.02;;;;;;;18.35;100.00;92901.34;5032395;28;20060;-78
2021/08/26 06:22:17;;;;;;;24.35;15.38;;;;;;;18.41;100.00;92900.25;5032253;28;20073;-77
2021/08/26 06:24:43;;;;;;;22.27;14.15;;;;;;;18.43;100.00;92872.16;5032108;28;20099;-78
2021/08/26 06:27:10;;;;;;;23.67;14.48;;;;;;;18.43;100.00;92868.81;5031960;28;20049;-78
2021/08/26 06:29:37;;;;;;;25.00;14.77;;;;;;;18.46;100.00;92864.88;5032186;28;20046;-78
2021/08/26 06:32:04;;;;;;;28.02;14.65;;;;;;;18.47;100.00;92875.00;5031625;28;20049;-78
2021/08/26 06:34:33;;;;;;;20.42;14.40;;;;;;;18.64;100.00;92881.69;5032039;28;20095;-78
2021/08/26 06:37:01;;;;;;;20.52;14.35;;;;;;;18.73;100.00;92885.28;5031873;28;20045;-78
2021/08/26 06:39:28;;;;;;;20.10;13.52;;;;;;;18.81;100.00;92889.94;5031804;28;20092;-79
2021/08/26 06:41:55;;;;;;;22.15;13.40;;;;;;;18.89;100.00;92900.84;5031747;28;20052;-79
2021/08/26 06:44:22;;;;;;;16.45;12.68;;;;;;;18.81;100.00;92873.53;5031824;28;20053;-79
2021/08/26 06:46:49;;;;;;;17.98;12.43;;;;;;;18.98;100.00;92899.19;5031982;28;20080;-78
2021/08/26 06:49:16;;;;;;;27.08;16.05;;;;;;;19.02;100.00;92891.66;5031875;28;20052;-78
2021/08/26 06:51:43;;;;;;;30.98;17.27;;;;;;;18.53;100.00;92873.16;5031419;28;20049;-78
2021/08/26 06:54:11;;;;;;;33.30;23.67;;;;;;;18.42;100.00;92877.63;5031667;28;20457;-78
2021/08/26 06:56:38;;;;;;;30.52;19.15;;;;;;;18.27;100.00;92889.66;5031783;28;20049;-78
2021/08/26 06:59:04;;;;;;;27.52;17.77;;;;;;;18.26;100.00;92885.50;5031346;28;20042;-79
2021/08/26 07:01:31;;;;;;;24.90;17.27;;;;;;;17.93;100.00;92851.25;5031632;28;20053;-79
2021/08/26 07:03:58;;;;;;;26.38;17.50;;;;;;;18.28;100.00;92886.00;5031753;28;20053;-79
2021/08/26 07:06:25;;;;;;;25.35;16.83;;;;;;;18.13;100.00;92854.84;5030741;28;20080;-79
2021/08/26 07:08:52;;;;;;;20.92;14.25;;;;;;;18.40;100.00;92896.13;5031260;28;20050;-79
2021/08/26 07:11:20;;;;;;;19.08;12.43;;;;;;;18.32;100.00;92888.09;5031440;28;20130;-79
2021/08/26 07:13:47;;;;;;;19.73;13.90;;;;;;;18.21;100.00;92901.13;5031168;28;20709;-79
2021/08/26 07:16:14;;;;;;;29.98;18.67;;;;;;;18.18;100.00;92888.63;5031336;28;20058;-79
2021/08/26 07:18:41;;;;;;;31.05;19.67;;;;;;;18.02;100.00;92886.03;5031307;28;20069;-79
2021/08/26 07:21:08;;;;;;;31.33;18.20;;;;;;;18.12;100.00;92876.69;5031421;28;20049;-79
2021/08/26 07:23:35;;;;;;;28.33;19.80;;;;;;;18.38;100.00;92871.41;5031301;28;20046;-79
2021/08/26 07:26:02;;;;;;;28.10;18.35;;;;;;;18.13;100.00;92862.66;5031032;28;20056;-79
2021/08/26 07:28:30;;;;;;;26.02;18.65;;;;;;;18.45;100.00;92871.13;5031162;28;20045;-79
2021/08/26 07:30:57;;;;;;;29.83;20.58;;;;;;;17.62;100.00;92791.56;5031063;28;20104;-79
2021/08/26 07:33:25;;;;;;;33.45;20.60;;;;;;;18.10;100.00;92878.78;5030997;28;20465;-79
2021/08/26 07:35:54;;;;;;;28.55;19.00;;;;;;;18.02;100.00;92885.28;5030738;28;20042;-79
2021/08/26 07:38:21;;;;;;;31.00;20.80;;;;;;;18.15;100.00;92873.59;5030615;28;20081;-79
2021/08/26 07:40:47;;;;;;;25.88;16.92;;;;;;;18.08;100.00;92875.66;5030618;28;20057;-80
2021/08/26 07:43:14;;;;;;;26.92;17.90;;;;;;;18.35;100.00;92890.13;5030589;28;20056;-79
2021/08/26 07:45:43;;;;;;;26.92;17.25;;;;;;;18.58;100.00;92887.97;5030433;28;20089;-79
2021/08/26 07:48:10;;;;;;;26.48;18.75;;;;;;;18.54;100.00;92887.72;5030345;28;20065;-79
2021/08/26 07:50:36;;;;;;;28.70;17.58;;;;;;;18.22;100.00;92884.47;5030672;28;20068;-79
2021/08/26 07:53:03;;;;;;;24.52;16.83;;;;;;;18.07;100.00;92861.13;5026110;28;20049;-79
2021/08/26 07:55:30;;;;;;;22.58;15.13;;;;;;;18.39;100.00;92894.56;5028664;28;20049;-79
2021/08/26 07:57:58;;;;;;;24.98;17.65;;;;;;;18.31;100.00;92876.91;5030018;28;20096;-79
2021/08/26 08:00:25;;;;;;;20.60;15.48;;;;;;;18.20;100.00;92864.97;5030101;28;20743;-79
2021/08/26 08:02:53;;;;;;;27.02;16.83;;;;;;;18.46;100.00;92844.84;5030445;28;20053;-80
2021/08/26 08:05:20;;;;;;;26.13;15.48;;;;;;;18.97;100.00;92863.81;5030510;28;20407;-80
2021/08/26 08:07:47;;;;;;;22.60;13.93;;;;;;;19.22;100.00;92856.91;5030202;28;20046;-80
2021/08/26 08:10:14;;;;;;;29.60;15.85;;;;;;;18.92;100.00;92861.25;5029920;28;20050;-79
2021/08/26 08:12:41;;;;;;;22.88;14.45;;;;;;;19.30;100.00;92863.38;5029747;28;20053;-81
2021/08/26 08:15:09;;;;;;;22.75;13.77;;;;;;;19.10;100.00;92870.28;5029828;28;20049;-81
2021/08/26 08:17:36;;;;;;;19.40;13.65;;;;;;;19.43;100.00;92843.72;5029314;28;20490;-80
2021/08/26 08:20:07;;;;;;;19.77;13.88;;;;;;;19.88;100.00;92862.59;5029542;28;20091;-80
2021/08/26 08:22:34;;;;;;;24.25;14.73;;;;;;;20.06;100.00;92833.50;5030397;28;20049;-80
2021/08/26 08:25:01;;;;;;;22.45;15.25;;;;;;;20.38;100.00;92858.97;5029752;28;20045;-80
2021/08/26 08:27:28;;;;;;;19.65;13.68;;;;;;;20.62;100.00;92870.41;5029938;28;20437;-80
2021/08/26 08:29:55;;;;;;;23.55;14.02;;;;;;;20.79;100.00;92883.75;5029980;28;20103;-80
2021/08/26 08:32:22;;;;;;;25.98;13.95;;;;;;;20.74;100.00;92867.38;5029733;28;20256;-80
2021/08/26 08:34:48;;;;;;;23.80;15.20;;;;;;;20.46;100.00;92865.38;5029542;28;20055;-80
2021/08/26 08:37:17;;;;;;;23.20;14.95;;;;;;;19.89;100.00;92861.53;5029532;28;20052;-80
2021/08/26 08:39:44;;;;;;;23.50;14.85;;;;;;;20.14;100.00;92867.56;5029795;28;20427;-80
2021/08/26 08:42:11;;;;;;;21.33;14.00;;;;;;;20.34;100.00;92885.88;5029451;28;20050;-81
2021/08/26 08:44:38;;;;;;;23.70;16.20;;;;;;;20.23;100.00;92872.94;5029549;28;20054;-81
2021/08/26 08:47:06;;;;;;;20.02;14.25;;;;;;;20.08;100.00;92852.28;5029109;28;20107;-81
2021/08/26 08:49:37;;;;;;;22.85;14.50;;;;;;;20.31;100.00;92883.84;5029352;28;20045;-81
2021/08/26 08:52:04;;;;;;;23.98;14.80;;;;;;;20.47;100.00;92890.44;5029334;28;20077;-81
2021/08/26 08:54:33;;;;;;;27.23;15.98;;;;;;;20.54;100.00;92893.47;5029418;28;20057;-81
2021/08/26 08:57:00;;;;;;;21.77;13.32;;;;;;;20.35;100.00;92884.81;5029574;28;20411;-80
2021/08/26 08:59:28;;;;;;;18.58;13.73;;;;;;;20.25;100.00;92888.31;5029572;28;20049;-80
2021/08/26 09:01:56;;;;;;;23.95;14.32;;;;;;;20.41;100.00;92896.75;5029220;28;20056;-80
2021/08/26 09:04:24;;;;;;;22.23;14.60;;;;;;;20.40;100.00;92879.53;5029378;28;20076;-80
2021/08/26 09:06:51;;;;;;;21.17;13.98;;;;;;;20.56;100.00;92899.16;5029204;28;20053;-80
2021/08/26 09:09:20;;;;;;;19.15;13.77;;;;;;;20.59;100.00;92897.84;5029884;28;20049;-80
2021/08/26 09:11:52;;;;;;;23.80;12.68;;;;;;;20.59;100.00;92891.84;5029534;28;20060;-80
2021/08/26 09:14:20;;;;;;;19.02;12.95;;;;;;;20.10;100.00;92887.44;5029625;28;20071;-80
2021/08/26 09:16:51;;;;;;;18.63;13.80;;;;;;;20.16;100.00;92883.72;5029583;28;20564;-79
2021/08/26 09:19:27;;;;;;;18.42;12.68;;;;;;;19.35;100.00;92868.53;5029869;28;20145;-80
2021/08/26 09:21:54;;;;;;;21.92;13.45;;;;;;;19.48;100.00;92867.91;5029056;28;20091;-80
2021/08/26 09:24:22;;;;;;;20.67;13.98;;;;;;;19.80;100.00;92893.69;5028929;28;20581;-80
2021/08/26 09:26:52;;;;;;;22.50;15.50;;;;;;;19.74;100.00;92888.53;5028945;28;20053;-79
2021/08/26 09:29:19;;;;;;;19.60;13.35;;;;;;;19.70;100.00;92902.38;5029537;28;20049;-79
2021/08/26 09:31:47;;;;;;;19.35;14.35;;;;;;;19.78;100.00;92899.19;5033274;28;20053;-79
2021/08/26 09:34:17;;;;;;;17.60;13.35;;;;;;;19.76;100.00;92907.28;5032969;28;20518;-80
2021/08/26 09:36:57;;;;;;;18.73;13.80;;;;;;;19.89;100.00;92908.47;5033100;28;20060;-79
2021/08/26 09:39:27;;;;;;;21.58;13.63;;;;;;;19.92;100.00;92901.94;5032780;28;20487;-80
2021/08/26 09:41:58;;;;;;;21.30;14.00;;;;;;;19.81;100.00;92880.38;5033202;28;20061;-79
2021/08/26 09:44:26;;;;;;;33.88;17.05;;;;;;;20.03;100.00;92897.41;5032717;28;20088;-79
2021/08/26 09:46:56;;;;;;;20.48;15.02;;;;;;;20.15;100.00;92899.63;5033103;28;20053;-79
2021/08/26 09:49:24;;;;;;;32.80;17.23;;;;;;;20.14;100.00;92885.81;5032877;28;20099;-79
2021/08/26 09:52:06;;;;;;;27.20;20.08;;;;;;;20.31;100.00;92900.25;5030656;28;20056;-79
2021/08/26 09:54:38;;;;;;;28.00;20.02;;;;;;;20.35;100.00;92898.63;5030808;28;20049;-79
2021/08/26 09:57:07;;;;;;;28.23;22.23;;;;;;;20.42;100.00;92893.09;5031731;28;20057;-79
2021/08/26 09:59:48;;;;;;;32.95;22.40;;;;;;;20.48;100.00;92886.75;5032444;28;20052;-80
2021/08/26 10:02:16;;;;;;;34.65;23.02;;;;;;;20.45;100.00;92874.25;5032537;28;20050;-79
2021/08/26 10:04:43;;;;;;;38.42;25.17;;;;;;;20.58;100.00;92883.25;5032501;28;20396;-79
2021/08/26 10:07:10;;;;;;;33.15;24.85;;;;;;;20.88;100.00;92899.59;5032295;28;20584;-79
2021/08/26 10:09:40;;;;;;;30.88;24.35;;;;;;;21.04;100.00;92900.16;5032593;28;20383;-79
2021/08/26 10:12:12;;;;;;;32.88;23.85;;;;;;;21.21;100.00;92899.66;5032540;28;20049;-79
2021/08/26 10:14:39;;;;;;;34.33;23.45;;;;;;;21.44;100.00;92897.22;5032435;28;20049;-79
2021/08/26 10:17:06;;;;;;;31.20;23.02;;;;;;;21.61;100.00;92896.72;5032317;28;20046;-80
2021/08/26 10:19:34;;;;;;;31.17;22.63;;;;;;;21.82;100.00;92890.38;5026664;28;20092;-79
2021/08/26 10:22:01;;;;;;;31.13;23.23;;;;;;;21.94;100.00;92893.31;5007561;28;20085;-79
2021/08/26 10:24:28;;;;;;;31.85;23.08;;;;;;;22.03;100.00;92881.13;5012636;28;20415;-79
2021/08/26 10:27:00;;;;;;;29.60;21.65;;;;;;;22.16;98.99;92874.34;5024642;28;20313;-79
2021/08/26 10:29:29;;;;;;;36.53;22.55;;;;;;;22.33;97.80;92882.69;5031945;28;20100;-79
2021/08/26 10:31:58;;;;;;;31.73;21.70;;;;;;;22.49;98.20;92897.00;5031627;28;20049;-80
2021/08/26 10:34:27;;;;;;;29.70;20.42;;;;;;;22.45;96.51;92892.66;5031851;28;20126;-80
2021/08/26 10:37:21;;;;;;;29.30;21.52;;;;;;;22.59;97.38;92898.69;5031759;28;20053;-80
2021/08/26 10:39:49;;;;;;;27.27;22.10;;;;;;;22.59;98.16;92893.44;5031891;28;20045;-79
2021/08/26 10:42:42;;;;;;;30.85;19.33;;;;;;;22.79;96.90;92892.28;5031108;28;20399;-79
2021/08/26 10:45:20;;;;;;;27.17;19.55;;;;;;;22.81;96.42;92894.56;5032776;28;20509;-80
2021/08/26 10:48:14;;;;;;;26.30;19.60;;;;;;;22.72;94.18;92899.72;5032495;28;20059;-79
2021/08/26 10:50:45;;;;;;;23.03;19.43;;;;;;;22.61;95.98;92882.69;5031569;28;20411;-79
2021/08/26 10:53:15;;;;;;;29.60;20.67;;;;;;;22.69;95.34;92898.47;5031833;28;20294;-80
2021/08/26 10:55:45;;;;;;;26.42;20.25;;;;;;;22.65;96.25;92891.50;5031732;28;20049;-80
2021/08/26 10:58:34;;;;;;;31.73;22.05;;;;;;;22.55;94.89;92898.50;5031585;28;20057;-80
2021/08/26 11:01:04;;;;;;;30.63;21.13;;;;;;;22.55;95.04;92889.88;5031106;28;20052;-79
2021/08/26 11:03:52;;;;;;;28.42;21.75;;;;;;;22.66;95.74;92890.44;5031729;28;20045;-79
2021/08/26 11:06:41;;;;;;;27.45;21.35;;;;;;;22.81;95.40;92871.78;5031593;28;20045;-79
2021/08/26 11:09:37;;;;;;;27.60;20.63;;;;;;;23.07;95.84;92870.47;5031262;28;20533;-79
2021/08/26 11:12:28;;;;;;;28.17;20.42;;;;;;;23.21;93.93;92850.25;5031312;28;20050;-79
2021/08/26 11:15:00;;;;;;;28.15;19.83;;;;;;;23.64;91.55;92871.03;5031427;28;20045;-80
2021/08/26 11:17:35;;;;;;;24.10;18.27;;;;;;;23.58;90.36;92842.31;5031243;28;20053;-79
2021/08/26 11:20:28;;;;;;;24.45;18.95;;;;;;;23.83;89.31;92868.22;5031756;28;20107;-79